KTHV/THV METAR and TAF weather

Enter ICAO airport designator
Station Type Date Time Source
KTHV METAR 2022/05/23 14:53 UTC NOAA

KTHV 231453Z AUTO 36008KT 10SM CLR 18/08 A3027 RMK AO2 SLP250 T01780078 51004


Station Type Date Time Source
KTHV Decoded METAR 2022/05/23 14:53 UTC NOAA

YORK AIRPORT, PA, United States (KTHV) 39-55N 076-53W 144M
May 23, 2022 - 10:53 AM EDT / 2022.05.23 1453 UTC
Wind: from the N (360 degrees) at 9 MPH (8 KT):0
Visibility: 10 mile(s):0
Sky conditions: clear
Temperature: 64.0 F (17.8 C)
Dew Point: 46.0 F (7.8 C)
Relative Humidity: 51%
Pressure (altimeter): 30.27 in. Hg (1025 hPa)
Pressure tendency: 0.01 inches (0.4 hPa) higher than three hours ago
ob: KTHV 231453Z AUTO 36008KT 10SM CLR 18/08 A3027 RMK AO2 SLP250 T01780078 51004
cycle: 15

Station Type Date Time Source
KTHV TAF UTC NOAA

Error!

Example: see airport list